createdAt,value
2019-04-28T00:00:45.580Z,0.50
2019-04-28T00:03:16.146Z,0.47
2019-04-28T00:05:46.651Z,0.70
2019-04-28T00:08:18.357Z,0.35
2019-04-28T00:10:48.930Z,0.62
2019-04-28T00:13:20.904Z,0.30
2019-04-28T00:15:51.820Z,0.40
2019-04-28T00:18:22.394Z,0.88
2019-04-28T00:21:16.079Z,0.60
2019-04-28T00:24:06.213Z,0.62
2019-04-28T00:27:05.012Z,0.70
2019-04-28T00:29:41.359Z,0.50
2019-04-28T00:32:11.052Z,0.65
2019-04-28T00:34:41.648Z,0.90
2019-04-28T00:37:22.120Z,0.80
2019-04-28T00:39:52.693Z,0.50
2019-04-28T00:42:23.310Z,0.40
2019-04-28T00:44:53.883Z,0.62
2019-04-28T00:47:25.054Z,1.15
2019-04-28T00:49:55.638Z,0.88
2019-04-28T00:52:27.385Z,0.88
2019-04-28T00:54:57.970Z,0.47
2019-04-28T00:57:28.664Z,0.85
2019-04-28T00:59:59.264Z,0.45
2019-04-28T01:02:48.705Z,0.60
2019-04-28T01:05:21.390Z,0.45
2019-04-28T01:07:52.137Z,0.60
2019-04-28T01:10:24.203Z,0.70
2019-04-28T01:12:54.750Z,1.25
2019-04-28T01:15:47.312Z,1.03
2019-04-28T01:18:50.184Z,1.27
2019-04-28T01:21:22.578Z,1.20
2019-04-28T01:23:53.137Z,1.07
2019-04-28T01:26:23.708Z,2.70
2019-04-28T01:28:54.244Z,1.20
2019-04-28T01:31:42.287Z,0.75
2019-04-28T01:34:20.657Z,1.35
2019-04-28T01:36:51.727Z,1.22
2019-04-28T01:39:22.442Z,2.60
2019-04-28T01:41:53.006Z,1.77
2019-04-28T01:44:25.156Z,0.72
2019-04-28T01:46:55.799Z,1.60
2019-04-28T01:49:29.475Z,1.07
2019-04-28T01:52:01.483Z,1.07
2019-04-28T01:54:32.126Z,1.10
2019-04-28T01:57:03.214Z,2.20
2019-04-28T01:59:33.733Z,1.02
2019-04-28T02:02:04.684Z,0.82
2019-04-28T02:04:35.196Z,0.80
2019-04-28T02:07:05.955Z,0.62
2019-04-28T02:09:36.532Z,1.55
2019-04-28T02:12:07.419Z,0.70
2019-04-28T02:14:37.984Z,1.47
2019-04-28T02:17:10.332Z,1.32
2019-04-28T02:19:41.217Z,1.17
2019-04-28T02:22:21.187Z,1.90
2019-04-28T02:24:51.871Z,1.10
2019-04-28T02:27:23.547Z,1.30
2019-04-28T02:29:54.088Z,1.72
2019-04-28T02:32:24.814Z,1.95
2019-04-28T02:34:55.329Z,1.52
2019-04-28T02:37:26.031Z,1.80
2019-04-28T02:39:56.695Z,1.67
2019-04-28T02:42:27.344Z,2.42
2019-04-28T02:45:00.293Z,1.42
2019-04-28T02:47:33.689Z,1.30
2019-04-28T02:50:12.225Z,2.20
2019-04-28T02:53:01.609Z,1.85
2019-04-28T02:55:33.221Z,0.78
2019-04-28T02:58:04.027Z,1.85
2019-04-28T03:00:34.571Z,3.00
2019-04-28T03:03:05.236Z,1.20
2019-04-28T03:05:35.893Z,2.10
2019-04-28T03:08:06.601Z,2.02
2019-04-28T03:10:37.172Z,2.42
2019-04-28T03:13:10.830Z,3.22
2019-04-28T03:15:41.428Z,1.45
2019-04-28T03:18:12.426Z,1.50
2019-04-28T03:20:42.970Z,1.67
2019-04-28T03:23:13.540Z,2.22
2019-04-28T03:25:51.857Z,2.12
2019-04-28T03:28:34.276Z,2.27
2019-04-28T03:31:51.069Z,2.12
2019-04-28T03:33:57.051Z,1.92
2019-04-28T03:36:27.690Z,2.75
2019-04-28T03:39:00.668Z,2.42
2019-04-28T03:41:31.184Z,2.05
2019-04-28T03:44:03.284Z,2.60
2019-04-28T03:46:41.700Z,2.35
2019-04-28T03:49:31.716Z,2.17
2019-04-28T03:52:04.521Z,2.10
2019-04-28T03:54:35.167Z,3.60
2019-04-28T03:57:07.036Z,3.90
2019-04-28T03:59:37.719Z,2.45
2019-04-28T04:02:10.976Z,1.92
2019-04-28T04:04:41.423Z,2.60
2019-04-28T04:07:13.423Z,2.55
2019-04-28T04:09:51.417Z,2.20
2019-04-28T04:12:40.985Z,2.62
2019-04-28T04:15:35.645Z,1.90
2019-04-28T04:18:13.726Z,2.50
2019-04-28T04:20:44.261Z,2.87
2019-04-28T04:23:14.923Z,2.67
2019-04-28T04:25:45.470Z,2.27
2019-04-28T04:28:16.032Z,2.08
2019-04-28T04:30:46.574Z,2.58
2019-04-28T04:33:17.149Z,2.55
2019-04-28T04:35:47.700Z,2.40
2019-04-28T04:38:18.368Z,2.33
2019-04-28T04:40:51.299Z,2.27
2019-04-28T04:43:23.379Z,3.33
2019-04-28T04:46:14.660Z,2.10
2019-04-28T04:48:46.741Z,4.33
2019-04-28T04:51:17.476Z,2.02
2019-04-28T04:53:50.717Z,2.92
2019-04-28T04:56:21.379Z,2.47
2019-04-28T04:58:52.205Z,1.90
2019-04-28T05:01:57.088Z,2.67
2019-04-28T05:04:50.681Z,2.50
2019-04-28T05:07:21.230Z,2.05
2019-04-28T05:09:51.797Z,2.55
2019-04-28T05:12:22.367Z,2.40
2019-04-28T05:14:52.904Z,3.10
2019-04-28T05:17:23.440Z,2.45
2019-04-28T05:19:53.984Z,3.50
2019-04-28T05:22:26.327Z,1.87
2019-04-28T05:25:11.980Z,2.50
2019-04-28T05:27:43.843Z,2.67
2019-04-28T05:30:14.706Z,2.67
2019-04-28T05:32:49.822Z,1.90
2019-04-28T05:35:21.388Z,2.50
2019-04-28T05:37:52.493Z,2.45
2019-04-28T05:40:23.119Z,2.30
2019-04-28T05:43:00.791Z,3.12
2019-04-28T05:45:32.562Z,2.25
2019-04-28T05:48:03.195Z,2.70
2019-04-28T05:50:50.072Z,3.05
2019-04-28T05:53:45.848Z,3.05
2019-04-28T05:56:29.580Z,2.52
2019-04-28T05:59:09.671Z,2.22
2019-04-28T06:01:57.786Z,2.75
2019-04-28T06:04:30.480Z,2.83
2019-04-28T06:07:07.153Z,2.52
2019-04-28T06:09:42.377Z,3.72
2019-04-28T06:12:14.124Z,3.05
2019-04-28T06:14:44.802Z,2.60
2019-04-28T06:17:16.793Z,2.22
2019-04-28T06:19:47.364Z,2.35
2019-04-28T06:22:18.029Z,3.42
2019-04-28T06:24:48.566Z,3.17
2019-04-28T06:27:19.168Z,3.08
2019-04-28T06:29:49.948Z,2.62
2019-04-28T06:32:20.732Z,3.50
2019-04-28T06:34:51.508Z,2.40
2019-04-28T06:37:22.309Z,2.25
2019-04-28T06:39:52.869Z,3.15
2019-04-28T06:42:23.559Z,2.15
2019-04-28T06:44:54.112Z,2.35
2019-04-28T06:47:24.707Z,5.03
2019-04-28T06:49:55.300Z,3.22
2019-04-28T06:52:25.877Z,2.02
2019-04-28T06:54:56.485Z,2.33
2019-04-28T06:57:27.135Z,3.37
2019-04-28T06:59:57.774Z,1.82
2019-04-28T07:02:29.450Z,1.92
2019-04-28T07:05:02.209Z,1.90
2019-04-28T07:07:34.233Z,1.72
2019-04-28T07:10:05.162Z,2.40
2019-04-28T07:12:35.770Z,1.77
2019-04-28T07:15:07.378Z,2.38
2019-04-28T07:17:39.165Z,2.65
2019-04-28T07:20:30.555Z,3.25
2019-04-28T07:23:01.148Z,2.77
2019-04-28T07:25:31.710Z,2.83
2019-04-28T07:28:02.282Z,2.58
2019-04-28T07:30:32.902Z,2.45
2019-04-28T07:33:03.462Z,2.25
2019-04-28T07:35:34.019Z,3.05
2019-04-28T07:38:04.627Z,2.85
2019-04-28T07:40:35.380Z,3.17
2019-04-28T07:43:05.983Z,2.58
2019-04-28T07:45:36.687Z,3.08
2019-04-28T07:48:07.178Z,3.25
2019-04-28T07:50:38.102Z,3.87
2019-04-28T07:53:14.833Z,3.27
2019-04-28T07:55:45.336Z,3.37
2019-04-28T07:58:16.319Z,2.83
2019-04-28T08:00:48.777Z,3.25
2019-04-28T08:03:19.535Z,3.17
2019-04-28T08:05:50.328Z,2.80
2019-04-28T08:08:22.464Z,3.77
2019-04-28T08:10:53.182Z,3.47
2019-04-28T08:13:23.789Z,3.92
2019-04-28T08:15:54.519Z,4.08
2019-04-28T08:18:25.168Z,3.67
2019-04-28T08:20:55.890Z,3.60
2019-04-28T08:23:26.509Z,3.52
2019-04-28T08:25:58.149Z,3.60
2019-04-28T08:28:28.959Z,3.40
2019-04-28T08:31:00.967Z,3.30
2019-04-28T08:34:01.702Z,4.95
2019-04-28T08:36:23.866Z,3.85
2019-04-28T08:38:54.445Z,3.62
2019-04-28T08:41:24.994Z,3.72
2019-04-28T08:43:56.905Z,3.33
2019-04-28T08:46:27.462Z,4.15
2019-04-28T08:48:58.047Z,4.47
2019-04-28T08:51:29.813Z,4.22
2019-04-28T08:54:00.530Z,4.30
2019-04-28T08:56:31.191Z,4.83
2019-04-28T08:59:01.783Z,4.30
2019-04-28T09:01:32.442Z,4.78
2019-04-28T09:04:14.825Z,4.62
2019-04-28T09:06:36.423Z,5.65
2019-04-28T09:09:13.781Z,4.90
2019-04-28T09:11:44.443Z,5.65
2019-04-28T09:14:15.033Z,5.45
2019-04-28T09:16:45.597Z,5.58
2019-04-28T09:19:16.209Z,7.03
2019-04-28T09:21:46.778Z,5.90
2019-04-28T09:24:17.494Z,5.70
2019-04-28T09:26:48.239Z,6.00
2019-04-28T09:29:18.816Z,5.67
2019-04-28T09:31:49.371Z,6.42
2019-04-28T09:34:28.204Z,6.00
2019-04-28T09:36:53.463Z,6.35
2019-04-28T09:40:02.247Z,6.40
2019-04-28T09:43:08.197Z,5.45
2019-04-28T09:46:09.727Z,4.53
2019-04-28T09:48:40.589Z,3.80
2019-04-28T09:51:13.319Z,3.33
2019-04-28T09:53:44.009Z,3.60
2019-04-28T09:56:14.566Z,3.22
2019-04-28T09:58:45.299Z,3.02
2019-04-28T10:01:18.156Z,2.70
2019-04-28T10:03:48.762Z,2.30
2019-04-28T10:06:19.332Z,2.30
2019-04-28T10:08:49.955Z,2.58
2019-04-28T10:11:30.235Z,2.30
2019-04-28T10:13:53.166Z,1.82
2019-04-28T10:16:23.693Z,2.85
2019-04-28T10:18:54.488Z,2.33
2019-04-28T10:21:26.249Z,2.25
2019-04-28T10:23:58.320Z,1.90
2019-04-28T10:26:29.230Z,2.02
2019-04-28T10:28:59.932Z,2.77
2019-04-28T10:31:32.386Z,2.70
2019-04-28T10:34:04.609Z,2.90
2019-04-28T10:36:36.554Z,2.87
2019-04-28T10:39:29.472Z,2.52
2019-04-28T10:42:00.279Z,2.20
2019-04-28T10:44:32.594Z,2.02
2019-04-28T10:47:04.474Z,2.50
2019-04-28T10:49:35.382Z,2.85
2019-04-28T10:52:06.119Z,2.35
2019-04-28T10:54:36.951Z,1.85
2019-04-28T10:57:07.504Z,3.00
2019-04-28T10:59:38.073Z,3.45
2019-04-28T11:02:08.813Z,2.25
2019-04-28T11:05:08.072Z,2.08
2019-04-28T11:07:33.800Z,2.10
2019-04-28T11:10:17.405Z,2.22
2019-04-28T11:12:48.036Z,1.07
2019-04-28T11:15:27.864Z,1.60
2019-04-28T11:17:58.831Z,1.47
2019-04-28T11:20:32.759Z,1.72
2019-04-28T11:23:03.886Z,2.15
2019-04-28T11:25:34.665Z,0.80
2019-04-28T11:28:06.143Z,1.90
2019-04-28T11:30:36.897Z,1.87
2019-04-28T11:33:14.859Z,0.72
2019-04-28T11:35:45.743Z,2.17
2019-04-28T11:38:16.698Z,2.20
2019-04-28T11:40:47.386Z,2.00
2019-04-28T11:43:18.255Z,1.77
2019-04-28T11:45:49.201Z,1.50
2019-04-28T11:48:19.803Z,1.47
2019-04-28T11:50:50.435Z,1.15
2019-04-28T11:53:22.197Z,2.10
2019-04-28T11:55:53.907Z,0.72
2019-04-28T11:58:24.535Z,0.80
2019-04-28T12:00:55.108Z,2.00
2019-04-28T12:03:26.893Z,0.95
2019-04-28T12:05:57.510Z,0.90
2019-04-28T12:08:28.285Z,1.65
2019-04-28T12:11:19.484Z,1.80
2019-04-28T12:14:04.166Z,0.68
2019-04-28T12:16:52.987Z,0.70
2019-04-28T12:19:42.586Z,1.60
2019-04-28T12:22:13.644Z,1.50
2019-04-28T12:24:44.345Z,2.22
2019-04-28T12:27:15.046Z,2.25
2019-04-28T12:29:45.668Z,1.00
2019-04-28T12:32:16.594Z,1.07
2019-04-28T12:34:47.268Z,1.00
2019-04-28T12:37:18.090Z,0.95
2019-04-28T12:39:49.742Z,1.05
2019-04-28T12:42:20.363Z,0.75
2019-04-28T12:44:51.080Z,1.12
2019-04-28T12:47:21.658Z,2.05
2019-04-28T12:50:15.202Z,2.52
2019-04-28T12:52:46.473Z,1.52
2019-04-28T12:55:17.181Z,2.90
2019-04-28T12:57:47.757Z,2.85
2019-04-28T13:00:50.185Z,2.23
2019-04-28T13:03:50.426Z,4.62
2019-04-28T13:06:21.127Z,1.82
2019-04-28T13:08:51.715Z,0.98
2019-04-28T13:11:22.361Z,2.12
2019-04-28T13:13:53.442Z,1.42
2019-04-28T13:16:24.003Z,1.75
2019-04-28T13:18:54.832Z,3.67
2019-04-28T13:21:25.696Z,1.52
2019-04-28T13:23:56.421Z,2.75
2019-04-28T13:26:27.565Z,2.50
2019-04-28T13:28:58.472Z,2.80
2019-04-28T13:31:30.545Z,1.85
2019-04-28T13:34:02.174Z,1.15
2019-04-28T13:36:35.175Z,1.52
2019-04-28T13:39:10.022Z,2.17
2019-04-28T13:41:40.567Z,1.95
2019-04-28T13:44:14.343Z,1.82
2019-04-28T13:46:46.867Z,1.70
2019-04-28T13:49:18.342Z,2.30
2019-04-28T13:51:48.915Z,2.55
2019-04-28T13:54:21.167Z,2.80
2019-04-28T13:56:51.801Z,2.87
2019-04-28T13:59:22.728Z,1.92
2019-04-28T14:02:03.886Z,3.52
2019-04-28T14:04:43.447Z,3.22
2019-04-28T14:07:14.053Z,3.10
2019-04-28T14:09:44.706Z,2.65
2019-04-28T14:12:16.754Z,2.02
2019-04-28T14:14:47.477Z,2.08
2019-04-28T14:17:18.050Z,1.92
2019-04-28T14:19:48.673Z,2.95
2019-04-28T14:22:19.391Z,2.40
2019-04-28T14:24:50.013Z,2.58
2019-04-28T14:27:20.688Z,3.83
2019-04-28T14:29:51.392Z,2.37
2019-04-28T14:32:21.961Z,3.05
2019-04-28T14:34:52.490Z,3.10
2019-04-28T14:37:23.087Z,2.98
2019-04-28T14:39:53.776Z,2.33
2019-04-28T14:42:24.294Z,2.70
2019-04-28T14:44:55.090Z,2.67
2019-04-28T14:47:25.960Z,2.52
2019-04-28T14:49:56.836Z,2.60
2019-04-28T14:52:27.446Z,3.92
2019-04-28T14:54:58.215Z,2.15
2019-04-28T14:57:28.866Z,3.65
2019-04-28T14:59:59.649Z,3.95
2019-04-28T15:02:45.859Z,3.80
2019-04-28T15:05:39.290Z,3.05
2019-04-28T15:08:35.390Z,2.65
2019-04-28T15:11:11.665Z,3.95
2019-04-28T15:13:42.367Z,3.72
2019-04-28T15:16:13.181Z,2.33
2019-04-28T15:18:43.930Z,2.30
2019-04-28T15:21:14.613Z,3.75
2019-04-28T15:23:45.325Z,3.90
2019-04-28T15:26:17.076Z,3.47
2019-04-28T15:28:47.665Z,2.50
2019-04-28T15:31:19.530Z,2.08
2019-04-28T15:33:50.231Z,2.65
2019-04-28T15:36:20.882Z,2.62
2019-04-28T15:38:52.933Z,3.98
2019-04-28T15:41:23.441Z,2.77
2019-04-28T15:43:55.028Z,2.95
2019-04-28T15:46:25.614Z,2.60
2019-04-28T15:48:56.179Z,2.87
2019-04-28T15:51:26.827Z,3.00
2019-04-28T15:53:58.589Z,3.08
2019-04-28T15:56:48.215Z,3.67
2019-04-28T15:59:20.179Z,3.30
2019-04-28T16:01:51.203Z,3.08
2019-04-28T16:04:21.871Z,3.15
2019-04-28T16:06:53.040Z,3.30
2019-04-28T16:09:23.710Z,3.37
2019-04-28T16:11:55.746Z,3.12
2019-04-28T16:14:26.422Z,3.22
2019-04-28T16:16:57.163Z,3.20
2019-04-28T16:19:27.726Z,2.10
2019-04-28T16:22:00.310Z,3.72
2019-04-28T16:24:31.102Z,5.28
2019-04-28T16:27:01.737Z,3.60
2019-04-28T16:29:32.471Z,3.17
2019-04-28T16:32:03.053Z,3.67
2019-04-28T16:34:33.825Z,3.65
2019-04-28T16:37:04.420Z,3.40
2019-04-28T16:39:35.105Z,3.22
2019-04-28T16:42:18.084Z,2.42
2019-04-28T16:44:55.956Z,3.25
2019-04-28T16:47:26.583Z,3.67
2019-04-28T16:49:57.316Z,3.17
2019-04-28T16:52:28.721Z,3.47
2019-04-28T16:55:17.758Z,2.60
2019-04-28T16:58:07.583Z,2.60
2019-04-28T17:00:56.405Z,4.22
2019-04-28T17:03:30.120Z,3.47
2019-04-28T17:06:00.703Z,4.05
2019-04-28T17:08:31.327Z,4.90
2019-04-28T17:11:02.023Z,5.17
2019-04-28T17:13:32.916Z,3.87
2019-04-28T17:16:03.620Z,3.45
2019-04-28T17:18:34.355Z,3.33
2019-04-28T17:21:04.976Z,3.20
2019-04-28T17:23:35.724Z,3.92
2019-04-28T17:26:06.286Z,2.92
2019-04-28T17:28:37.053Z,3.65
2019-04-28T17:31:08.802Z,2.85
2019-04-28T17:33:39.448Z,3.33
2019-04-28T17:36:11.240Z,3.52
2019-04-28T17:38:42.033Z,3.17
2019-04-28T17:41:13.029Z,2.50
2019-04-28T17:43:43.786Z,4.42
2019-04-28T17:46:14.436Z,7.80
2019-04-28T17:48:53.333Z,6.60
2019-04-28T17:51:24.161Z,4.22
2019-04-28T17:53:54.739Z,5.55
2019-04-28T17:56:25.935Z,2.60
2019-04-28T17:58:56.604Z,5.35
2019-04-28T18:01:46.031Z,2.70
2019-04-28T18:04:34.286Z,3.60
2019-04-28T18:07:10.645Z,3.95
2019-04-28T18:09:41.427Z,2.72
2019-04-28T18:12:12.303Z,2.83
2019-04-28T18:14:44.841Z,4.85
2019-04-28T18:17:33.246Z,4.40
2019-04-28T18:20:04.083Z,6.62
2019-04-28T18:22:34.754Z,4.10
2019-04-28T18:25:07.828Z,4.42
2019-04-28T18:27:38.838Z,3.27
2019-04-28T18:30:09.684Z,3.77
2019-04-28T18:32:58.099Z,4.03
2019-04-28T18:35:41.433Z,3.67
2019-04-28T18:38:35.199Z,3.58
2019-04-28T18:41:31.259Z,4.95
2019-04-28T18:44:09.794Z,4.62
2019-04-28T18:46:42.987Z,3.58
2019-04-28T18:49:14.169Z,5.45
2019-04-28T18:51:44.918Z,3.17
2019-04-28T18:54:15.518Z,2.80
2019-04-28T18:56:46.208Z,3.65
2019-04-28T18:59:16.829Z,3.62
2019-04-28T19:02:24.935Z,3.35
2019-04-28T19:04:55.554Z,3.60
2019-04-28T19:07:43.868Z,2.60
2019-04-28T19:10:21.680Z,3.95
2019-04-28T19:13:05.862Z,2.33
2019-04-28T19:16:06.224Z,4.25
2019-04-28T19:18:39.131Z,5.05
2019-04-28T19:21:09.870Z,3.60
2019-04-28T19:23:41.655Z,2.80
2019-04-28T19:26:12.290Z,4.95
2019-04-28T19:28:43.243Z,4.35
2019-04-28T19:31:16.744Z,4.80
2019-04-28T19:33:47.444Z,2.45
2019-04-28T19:36:19.164Z,3.50
2019-04-28T19:39:02.438Z,3.75
2019-04-28T19:41:22.334Z,4.75
2019-04-28T19:43:52.929Z,3.72
2019-04-28T19:46:23.630Z,3.02
2019-04-28T19:48:54.349Z,4.78
2019-04-28T19:51:31.761Z,3.80
2019-04-28T19:53:57.857Z,3.02
2019-04-28T19:56:34.645Z,3.45
2019-04-28T19:59:14.397Z,3.83
2019-04-28T20:01:45.117Z,4.42
2019-04-28T20:04:15.724Z,4.72
2019-04-28T20:06:46.430Z,4.72
2019-04-28T20:09:17.012Z,6.20
2019-04-28T20:11:47.781Z,5.05
2019-04-28T20:14:18.459Z,3.98
2019-04-28T20:16:49.381Z,4.10
2019-04-28T20:19:20.009Z,4.42
2019-04-28T20:21:50.725Z,6.15
2019-04-28T20:24:22.286Z,5.30
2019-04-28T20:26:52.949Z,4.78
2019-04-28T20:29:23.670Z,4.47
2019-04-28T20:31:54.252Z,5.65
2019-04-28T20:34:24.880Z,4.40
2019-04-28T20:37:16.192Z,4.62
2019-04-28T20:39:49.668Z,4.00
2019-04-28T20:42:43.165Z,5.87
2019-04-28T20:45:15.101Z,4.00
2019-04-28T20:47:46.983Z,4.90
2019-04-28T20:50:17.673Z,4.95
2019-04-28T20:52:50.101Z,4.28
2019-04-28T20:55:20.737Z,4.65
2019-04-28T20:57:51.363Z,5.37
2019-04-28T21:00:21.940Z,4.83
2019-04-28T21:02:52.569Z,4.55
2019-04-28T21:05:23.142Z,4.40
2019-04-28T21:07:53.720Z,6.37
2019-04-28T21:10:37.201Z,5.75
2019-04-28T21:12:58.041Z,4.92
2019-04-28T21:15:28.639Z,4.42
2019-04-28T21:17:59.247Z,4.03
2019-04-28T21:20:32.033Z,4.53
2019-04-28T21:23:02.578Z,5.65
2019-04-28T21:25:33.196Z,6.40
2019-04-28T21:28:03.782Z,5.72
2019-04-28T21:30:34.351Z,4.40
2019-04-28T21:33:05.007Z,4.08
2019-04-28T21:35:35.753Z,4.72
2019-04-28T21:38:06.328Z,5.15
2019-04-28T21:40:37.704Z,4.58
2019-04-28T21:43:32.448Z,4.97
2019-04-28T21:46:21.917Z,5.15
2019-04-28T21:48:55.441Z,5.17
2019-04-28T21:51:26.065Z,4.75
2019-04-28T21:53:56.644Z,4.47
2019-04-28T21:56:27.233Z,4.80
2019-04-28T21:58:58.906Z,5.22
2019-04-28T22:01:29.882Z,4.17
2019-04-28T22:04:01.586Z,4.00
2019-04-28T22:06:32.352Z,4.92
2019-04-28T22:09:05.857Z,4.45
2019-04-28T22:11:36.457Z,3.98
2019-04-28T22:14:07.145Z,4.75
2019-04-28T22:16:39.318Z,5.10
2019-04-28T22:19:09.999Z,4.20
2019-04-28T22:21:40.607Z,4.72
2019-04-28T22:24:16.972Z,3.95
2019-04-28T22:26:49.312Z,4.95
2019-04-28T22:29:19.866Z,5.85
2019-04-28T22:31:50.643Z,4.87
2019-04-28T22:34:21.162Z,4.47
2019-04-28T22:36:51.748Z,4.85
2019-04-28T22:39:22.401Z,5.00
2019-04-28T22:41:53.113Z,5.35
2019-04-28T22:44:24.827Z,4.53
2019-04-28T22:46:55.424Z,5.58
2019-04-28T22:49:26.577Z,4.50
2019-04-28T22:51:57.147Z,4.80
2019-04-28T22:54:34.205Z,5.25
2019-04-28T22:57:22.693Z,4.97
2019-04-28T22:59:53.450Z,4.80
2019-04-28T23:02:25.342Z,4.60
2019-04-28T23:05:07.641Z,6.53
2019-04-28T23:07:40.225Z,7.28
2019-04-28T23:10:12.194Z,4.67
2019-04-28T23:12:44.318Z,6.17
2019-04-28T23:15:15.057Z,5.28
2019-04-28T23:17:45.688Z,5.10
2019-04-28T23:20:16.561Z,4.97
2019-04-28T23:22:50.151Z,5.15
2019-04-28T23:25:21.789Z,5.65
2019-04-28T23:27:53.844Z,5.05
2019-04-28T23:30:41.163Z,5.00
2019-04-28T23:33:12.904Z,5.10
2019-04-28T23:35:43.446Z,6.10
2019-04-28T23:38:13.936Z,6.17
2019-04-28T23:40:51.917Z,4.97
2019-04-28T23:43:22.431Z,5.23
2019-04-28T23:45:52.998Z,5.58
2019-04-28T23:48:23.505Z,6.75
2019-04-28T23:51:02.250Z,5.90
2019-04-28T23:53:50.703Z,6.33
2019-04-28T23:56:22.348Z,6.55
2019-04-28T23:58:52.923Z,4.65
